Johnnie, Nevada
Current Conditions -  °F | °C
As of 7:52 AM on Friday 24 Oct 2014 (Local Time) from KDRA Reporting Station
Clear Clear  
Wind Chill: 56°   Ceiling: Unl
Heat Index: 56°   Visibility: 10mi
Dew Point: 31°   Wind: 6mph
Humidity: 39%   Direction: 10°N
Pressure: 30.13"   Gusts: NA
Location:  36.184°N, 116.002°W
Report Text: KDRA 241452Z AUTO 01005KT 10SM CLR 13/M01 A3013 RMK AO2 SLP174 T01331006
Loading
Personal Weather Stations






























Interactive Weather Map
Tropical Storm Tracking
New forecast layout! Learn more

10-Day Weather Forecast

Advertisements
Track Severe Weather on mobile